createdAt,value
2022-07-28T00:00:23.992Z,76.89
2022-07-28T00:02:52.184Z,76.61
2022-07-28T00:05:20.415Z,76.40
2022-07-28T00:07:50.319Z,76.81
2022-07-28T00:10:18.475Z,76.58
2022-07-28T00:12:46.619Z,76.65
2022-07-28T00:15:14.759Z,77.05
2022-07-28T00:17:42.885Z,77.00
2022-07-28T00:20:11.366Z,76.25
2022-07-28T00:22:43.812Z,77.17
2022-07-28T00:25:12.834Z,76.28
2022-07-28T00:27:41.060Z,76.66
2022-07-28T00:30:10.078Z,76.67
2022-07-28T00:32:39.213Z,76.23
2022-07-28T00:35:08.305Z,76.41
2022-07-28T00:37:39.864Z,76.63
2022-07-28T00:40:09.531Z,76.68
2022-07-28T00:42:37.774Z,76.67
2022-07-28T00:45:06.785Z,75.97
2022-07-28T00:47:35.036Z,76.34
2022-07-28T00:50:04.654Z,76.19
2022-07-28T00:52:34.038Z,76.21
2022-07-28T00:55:07.560Z,76.49
2022-07-28T00:57:35.782Z,76.17
2022-07-28T01:00:05.966Z,76.60
2022-07-28T01:02:34.423Z,76.76
2022-07-28T01:05:03.020Z,76.58
2022-07-28T01:08:06.428Z,76.50
2022-07-28T01:11:12.305Z,76.84
2022-07-28T01:13:55.590Z,76.40
2022-07-28T01:16:24.344Z,76.27
2022-07-28T01:19:17.439Z,76.47
2022-07-28T01:21:47.492Z,76.44
2022-07-28T01:24:18.579Z,76.24
2022-07-28T01:27:08.684Z,76.65
2022-07-28T01:30:08.459Z,76.39
2022-07-28T01:32:44.491Z,76.90
2022-07-28T01:35:19.879Z,76.99
2022-07-28T01:37:54.047Z,76.88
2022-07-28T01:40:27.395Z,77.15
2022-07-28T01:43:00.982Z,76.92
2022-07-28T01:45:29.754Z,77.03
2022-07-28T01:48:00.930Z,76.58
2022-07-28T01:50:29.589Z,76.97
2022-07-28T01:52:58.814Z,77.18
2022-07-28T01:55:27.256Z,76.92
2022-07-28T01:57:57.015Z,77.25
2022-07-28T02:00:28.223Z,76.86
2022-07-28T02:02:57.656Z,76.67
2022-07-28T02:05:28.796Z,76.89
2022-07-28T02:07:59.364Z,77.25
2022-07-28T02:10:29.049Z,77.25
2022-07-28T02:12:59.232Z,77.09
2022-07-28T02:15:28.361Z,76.89
2022-07-28T02:17:56.937Z,76.87
2022-07-28T02:20:26.033Z,77.65
2022-07-28T02:22:54.636Z,77.33
2022-07-28T02:25:22.993Z,76.74
2022-07-28T02:28:12.253Z,76.39
2022-07-28T02:31:20.708Z,76.73
2022-07-28T02:34:00.358Z,76.96
2022-07-28T02:36:41.411Z,76.90
2022-07-28T02:39:18.133Z,77.07
2022-07-28T02:41:51.734Z,77.13
2022-07-28T02:44:27.245Z,76.93
2022-07-28T02:46:57.653Z,76.86
2022-07-28T02:49:32.041Z,77.16
2022-07-28T02:52:02.405Z,77.17
2022-07-28T02:54:32.973Z,77.43
2022-07-28T02:57:02.599Z,77.11
2022-07-28T02:59:31.594Z,77.53
2022-07-28T03:02:00.258Z,77.40
2022-07-28T03:04:47.926Z,77.60
2022-07-28T03:07:16.426Z,77.81
2022-07-28T03:09:48.270Z,77.53
2022-07-28T03:12:16.721Z,77.55
2022-07-28T03:14:44.812Z,77.54
2022-07-28T03:17:13.227Z,77.73
2022-07-28T03:19:41.399Z,78.09
2022-07-28T03:22:10.381Z,78.39
2022-07-28T03:24:43.463Z,78.24
2022-07-28T03:27:31.486Z,78.65
2022-07-28T03:30:22.669Z,78.60
2022-07-28T03:33:01.494Z,78.74
2022-07-28T03:35:32.204Z,79.42
2022-07-28T03:38:12.119Z,78.74
2022-07-28T03:40:40.845Z,79.03
2022-07-28T03:43:17.054Z,79.22
2022-07-28T03:45:47.813Z,79.09
2022-07-28T03:48:16.356Z,79.29
2022-07-28T03:50:44.468Z,79.41
2022-07-28T03:53:22.147Z,79.35
2022-07-28T03:55:53.817Z,79.46
2022-07-28T03:58:25.940Z,79.73
2022-07-28T04:00:54.565Z,79.13
2022-07-28T04:03:42.333Z,79.23
2022-07-28T04:06:15.349Z,79.29
2022-07-28T04:08:44.035Z,79.22
2022-07-28T04:11:12.687Z,79.54
2022-07-28T04:13:40.806Z,79.44
2022-07-28T04:16:09.009Z,79.08
2022-07-28T04:18:37.332Z,79.33
2022-07-28T04:21:07.767Z,79.16
2022-07-28T04:23:35.926Z,79.38
2022-07-28T04:26:04.360Z,78.90
2022-07-28T04:28:32.432Z,79.02
2022-07-28T04:31:00.633Z,79.08
2022-07-28T04:33:29.344Z,79.00
2022-07-28T04:35:57.553Z,79.44
2022-07-28T04:38:25.680Z,78.93
2022-07-28T04:40:53.785Z,79.41
2022-07-28T04:43:23.133Z,79.54
2022-07-28T04:45:54.017Z,79.12
2022-07-28T04:48:23.879Z,78.81
2022-07-28T04:50:53.206Z,78.83
2022-07-28T04:53:22.537Z,79.22
2022-07-28T04:55:53.545Z,79.23
2022-07-28T04:58:24.179Z,79.06
2022-07-28T05:00:52.875Z,79.14
2022-07-28T05:03:21.402Z,78.92
2022-07-28T05:05:54.165Z,78.81
2022-07-28T05:08:25.553Z,79.47
2022-07-28T05:10:56.558Z,78.79
2022-07-28T05:13:30.383Z,79.33
2022-07-28T05:16:02.509Z,79.37
2022-07-28T05:18:30.817Z,79.09
2022-07-28T05:20:58.959Z,78.65
2022-07-28T05:23:27.058Z,79.13
2022-07-28T05:25:55.242Z,78.89
2022-07-28T05:28:23.906Z,78.28
2022-07-28T05:30:51.989Z,78.51
2022-07-28T05:33:20.084Z,78.52
2022-07-28T05:35:59.874Z,78.31
2022-07-28T05:38:28.729Z,78.03
2022-07-28T05:40:57.025Z,77.96
2022-07-28T05:43:25.744Z,78.79
2022-07-28T05:45:54.084Z,77.79
2022-07-28T05:48:22.663Z,77.58
2022-07-28T05:50:51.302Z,77.47
2022-07-28T05:53:19.599Z,77.97
2022-07-28T05:56:00.613Z,77.36
2022-07-28T05:58:30.853Z,76.97
2022-07-28T06:01:02.826Z,77.86
2022-07-28T06:03:35.036Z,77.10
2022-07-28T06:06:15.552Z,77.16
2022-07-28T06:08:46.116Z,77.78
2022-07-28T06:11:17.945Z,76.65
2022-07-28T06:13:52.464Z,76.60
2022-07-28T06:16:22.766Z,76.31
2022-07-28T06:18:51.941Z,76.38
2022-07-28T06:21:22.209Z,76.30
2022-07-28T06:23:50.350Z,76.00
2022-07-28T06:26:18.500Z,76.01
2022-07-28T06:28:46.637Z,74.79
2022-07-28T06:31:14.603Z,74.97
2022-07-28T06:33:42.921Z,75.76
2022-07-28T06:36:11.050Z,74.23
2022-07-28T06:38:39.209Z,73.58
2022-07-28T06:41:07.621Z,73.87
2022-07-28T06:43:39.034Z,72.75
2022-07-28T06:46:09.552Z,73.60
2022-07-28T06:48:39.510Z,73.04
2022-07-28T06:51:07.850Z,72.82
2022-07-28T06:53:36.099Z,72.03
2022-07-28T06:56:07.993Z,71.76
2022-07-28T06:58:42.095Z,72.02
2022-07-28T07:01:14.965Z,71.79
2022-07-28T07:03:44.238Z,71.62
2022-07-28T07:06:12.530Z,72.85
2022-07-28T07:08:40.720Z,72.83
2022-07-28T07:11:08.900Z,71.81
2022-07-28T07:13:37.347Z,71.53
2022-07-28T07:16:05.793Z,71.16
2022-07-28T07:18:34.072Z,71.05
2022-07-28T07:21:02.163Z,70.80
2022-07-28T07:23:30.289Z,70.71
2022-07-28T07:25:58.887Z,71.98
2022-07-28T07:28:27.023Z,70.94
2022-07-28T07:30:55.272Z,71.75
2022-07-28T07:33:23.486Z,70.91
2022-07-28T07:35:51.670Z,70.45
2022-07-28T07:38:19.890Z,71.31
2022-07-28T07:40:48.160Z,71.48
2022-07-28T07:43:16.301Z,70.99
2022-07-28T07:45:44.524Z,69.21
2022-07-28T07:48:12.770Z,69.65
2022-07-28T07:50:41.148Z,70.00
2022-07-28T07:53:09.353Z,69.90
2022-07-28T07:55:37.977Z,68.75
2022-07-28T07:58:06.569Z,69.21
2022-07-28T08:00:35.076Z,69.93
2022-07-28T08:03:03.467Z,69.35
2022-07-28T08:05:35.911Z,69.62
2022-07-28T08:08:07.431Z,69.56
2022-07-28T08:10:36.419Z,69.12
2022-07-28T08:13:06.485Z,68.44
2022-07-28T08:15:35.373Z,69.27
2022-07-28T08:18:03.958Z,69.46
2022-07-28T08:20:32.142Z,68.44
2022-07-28T08:23:00.380Z,69.14
2022-07-28T08:25:29.239Z,68.21
2022-07-28T08:27:57.429Z,68.76
2022-07-28T08:30:31.791Z,67.07
2022-07-28T08:33:02.423Z,67.43
2022-07-28T08:35:34.003Z,67.32
2022-07-28T08:38:05.192Z,66.81
2022-07-28T08:40:34.638Z,67.69
2022-07-28T08:43:34.304Z,69.08
2022-07-28T08:46:06.373Z,68.39
2022-07-28T08:48:37.581Z,67.99
2022-07-28T08:51:11.428Z,66.83
2022-07-28T08:53:41.738Z,66.38
2022-07-28T08:56:15.649Z,67.85
2022-07-28T08:58:44.223Z,66.91
2022-07-28T09:01:13.298Z,67.16
2022-07-28T09:03:42.356Z,66.02
2022-07-28T09:06:10.765Z,66.53
2022-07-28T09:08:38.961Z,66.00
2022-07-28T09:11:08.259Z,65.57
2022-07-28T09:13:36.735Z,65.71
2022-07-28T09:16:06.937Z,65.89
2022-07-28T09:18:35.337Z,65.33
2022-07-28T09:21:03.486Z,67.03
2022-07-28T09:23:49.641Z,65.01
2022-07-28T09:26:18.238Z,65.58
2022-07-28T09:28:57.626Z,65.83
2022-07-28T09:31:28.732Z,66.25
2022-07-28T09:34:02.135Z,65.69
2022-07-28T09:36:39.163Z,65.00
2022-07-28T09:39:07.629Z,64.96
2022-07-28T09:41:58.405Z,65.70
2022-07-28T09:44:28.013Z,63.89
2022-07-28T09:46:57.031Z,63.45
2022-07-28T09:49:43.422Z,64.70
2022-07-28T09:52:12.811Z,64.52
2022-07-28T09:55:04.125Z,62.69
2022-07-28T09:57:34.390Z,62.97
2022-07-28T10:00:12.686Z,63.45
2022-07-28T10:02:41.063Z,62.33
2022-07-28T10:05:12.934Z,62.71
2022-07-28T10:07:52.649Z,62.97
2022-07-28T10:10:21.802Z,62.66
2022-07-28T10:12:50.177Z,62.84
2022-07-28T10:15:45.458Z,63.57
2022-07-28T10:18:18.737Z,64.34
2022-07-28T10:20:47.178Z,64.61
2022-07-28T10:23:16.880Z,65.01
2022-07-28T10:25:45.589Z,64.86
2022-07-28T10:28:17.509Z,63.20
2022-07-28T10:30:46.542Z,63.14
2022-07-28T10:33:15.997Z,63.56
2022-07-28T10:35:55.046Z,62.79
2022-07-28T10:38:30.037Z,63.20
2022-07-28T10:41:02.361Z,63.84
2022-07-28T10:43:32.263Z,62.37
2022-07-28T10:46:06.203Z,63.18
2022-07-28T10:48:38.748Z,62.06
2022-07-28T10:51:07.155Z,62.30
2022-07-28T10:54:06.628Z,62.74
2022-07-28T10:56:58.863Z,61.34
2022-07-28T10:59:40.035Z,60.16
2022-07-28T11:02:08.277Z,60.69
2022-07-28T11:04:45.308Z,61.83
2022-07-28T11:07:17.093Z,62.29
2022-07-28T11:09:49.628Z,60.98
2022-07-28T11:12:51.934Z,59.47
2022-07-28T11:15:46.255Z,59.96
2022-07-28T11:18:14.624Z,61.90
2022-07-28T11:20:52.414Z,60.55
2022-07-28T11:23:48.008Z,58.97
2022-07-28T11:26:21.986Z,57.97
2022-07-28T11:29:04.479Z,59.13
2022-07-28T11:31:44.469Z,57.28
2022-07-28T11:34:25.268Z,58.56
2022-07-28T11:37:04.911Z,59.05
2022-07-28T11:39:43.667Z,59.18
2022-07-28T11:42:36.358Z,58.34
2022-07-28T11:45:37.607Z,57.63
2022-07-28T11:48:28.891Z,57.06
2022-07-28T11:51:24.657Z,56.03
2022-07-28T11:53:57.463Z,59.68
2022-07-28T11:56:32.337Z,54.81
2022-07-28T11:59:01.679Z,55.50
2022-07-28T12:01:32.055Z,57.72
2022-07-28T12:04:01.313Z,55.39
2022-07-28T12:06:38.867Z,54.92
2022-07-28T12:09:09.430Z,56.78
2022-07-28T12:11:43.912Z,55.98
2022-07-28T12:14:15.917Z,56.54
2022-07-28T12:16:51.213Z,56.83
2022-07-28T12:19:21.133Z,55.13
2022-07-28T12:21:55.930Z,55.92
2022-07-28T12:24:31.787Z,56.15
2022-07-28T12:27:00.704Z,54.24
2022-07-28T12:29:32.149Z,53.14
2022-07-28T12:32:07.043Z,55.65
2022-07-28T12:34:36.501Z,57.16
2022-07-28T12:37:06.678Z,54.98
2022-07-28T12:39:38.628Z,54.95
2022-07-28T12:42:13.504Z,54.86
2022-07-28T12:44:44.619Z,53.68
2022-07-28T12:47:14.053Z,55.37
2022-07-28T12:49:44.543Z,54.89
2022-07-28T12:52:30.260Z,53.42
2022-07-28T12:54:58.091Z,55.58
2022-07-28T12:57:51.598Z,56.17
2022-07-28T13:00:42.015Z,55.71
2022-07-28T13:03:28.474Z,55.94
2022-07-28T13:06:03.583Z,55.10
2022-07-28T13:08:57.491Z,54.11
2022-07-28T13:11:47.976Z,54.20
2022-07-28T13:14:16.664Z,55.58
2022-07-28T13:16:58.046Z,54.07
2022-07-28T13:19:26.325Z,54.65
2022-07-28T13:22:01.586Z,54.15
2022-07-28T13:24:31.531Z,54.68
2022-07-28T13:27:00.241Z,55.82
2022-07-28T13:29:28.525Z,55.64
2022-07-28T13:31:57.056Z,56.31
2022-07-28T13:34:25.359Z,55.59
2022-07-28T13:36:53.505Z,55.81
2022-07-28T13:39:22.529Z,55.72
2022-07-28T13:41:58.178Z,56.55
2022-07-28T13:44:28.799Z,57.27
2022-07-28T13:46:59.665Z,55.21
2022-07-28T13:49:32.310Z,55.72
2022-07-28T13:52:04.596Z,56.06
2022-07-28T13:54:33.269Z,55.63
2022-07-28T13:57:01.393Z,55.84
2022-07-28T13:59:29.587Z,56.31
2022-07-28T14:01:59.151Z,56.37
2022-07-28T14:04:27.925Z,56.82
2022-07-28T14:06:55.847Z,56.58
2022-07-28T14:09:23.823Z,55.82
2022-07-28T14:11:53.458Z,57.47
2022-07-28T14:14:25.302Z,57.08
2022-07-28T14:16:55.226Z,56.61
2022-07-28T14:19:39.487Z,58.00
2022-07-28T14:22:13.372Z,57.81
2022-07-28T14:24:42.865Z,57.09
2022-07-28T14:27:11.394Z,57.33
2022-07-28T14:29:40.007Z,57.29
2022-07-28T14:32:07.933Z,57.22
2022-07-28T14:34:39.891Z,58.99
2022-07-28T14:37:09.191Z,57.64
2022-07-28T14:39:38.437Z,57.54
2022-07-28T14:42:07.716Z,57.31
2022-07-28T14:44:35.836Z,58.29
2022-07-28T14:47:04.767Z,58.38
2022-07-28T14:49:33.689Z,57.58
2022-07-28T14:52:02.248Z,57.81
2022-07-28T14:54:30.526Z,58.15
2022-07-28T14:56:58.721Z,58.14
2022-07-28T14:59:26.921Z,59.53
2022-07-28T15:01:54.909Z,59.60
2022-07-28T15:04:23.297Z,56.90
2022-07-28T15:06:51.461Z,57.64
2022-07-28T15:09:19.760Z,57.48
2022-07-28T15:11:47.806Z,56.34
2022-07-28T15:14:16.616Z,56.99
2022-07-28T15:16:49.549Z,57.86
2022-07-28T15:19:17.472Z,58.51
2022-07-28T15:21:47.335Z,57.39
2022-07-28T15:24:16.997Z,56.86
2022-07-28T15:26:45.209Z,56.15
2022-07-28T15:29:13.030Z,56.53
2022-07-28T15:31:45.192Z,56.07
2022-07-28T15:34:13.610Z,57.27
2022-07-28T15:36:41.869Z,56.14
2022-07-28T15:39:14.014Z,55.69
2022-07-28T15:41:44.038Z,56.46
2022-07-28T15:44:14.125Z,57.46
2022-07-28T15:46:43.207Z,57.49
2022-07-28T15:49:15.311Z,57.46
2022-07-28T15:51:43.395Z,58.22
2022-07-28T15:54:13.234Z,60.10
2022-07-28T15:56:42.105Z,59.86
2022-07-28T15:59:09.916Z,61.14
2022-07-28T16:01:44.977Z,60.30
2022-07-28T16:04:13.972Z,59.59
2022-07-28T16:07:05.671Z,61.31
2022-07-28T16:09:46.011Z,61.18
2022-07-28T16:12:16.298Z,60.51
2022-07-28T16:14:44.504Z,60.45
2022-07-28T16:17:12.739Z,60.18
2022-07-28T16:19:50.017Z,60.09
2022-07-28T16:22:20.361Z,58.95
2022-07-28T16:24:49.388Z,59.38
2022-07-28T16:27:17.615Z,60.06
2022-07-28T16:29:45.497Z,58.92
2022-07-28T16:32:13.452Z,59.24
2022-07-28T16:34:41.768Z,58.86
2022-07-28T16:37:09.970Z,58.69
2022-07-28T16:39:38.433Z,59.31
2022-07-28T16:42:06.493Z,58.28
2022-07-28T16:44:37.689Z,59.16
2022-07-28T16:47:05.776Z,58.50
2022-07-28T16:49:33.796Z,59.50
2022-07-28T16:52:01.666Z,57.88
2022-07-28T16:54:29.966Z,58.99
2022-07-28T16:56:58.000Z,58.67
2022-07-28T16:59:41.922Z,58.48
2022-07-28T17:02:14.440Z,59.50
2022-07-28T17:04:42.596Z,59.51
2022-07-28T17:07:10.432Z,59.90
2022-07-28T17:09:39.254Z,58.63
2022-07-28T17:12:08.325Z,59.28
2022-07-28T17:14:36.708Z,58.72
2022-07-28T17:17:05.330Z,58.81
2022-07-28T17:19:33.401Z,59.33
2022-07-28T17:22:01.444Z,59.49
2022-07-28T17:24:29.550Z,58.53
2022-07-28T17:29:45.922Z,58.66
2022-07-28T17:32:14.255Z,60.61
2022-07-28T17:34:42.403Z,59.59
2022-07-28T17:37:10.593Z,59.72
2022-07-28T17:39:38.768Z,60.44
2022-07-28T17:42:07.136Z,60.60
2022-07-28T17:44:35.227Z,59.89
2022-07-28T17:47:03.841Z,59.64
2022-07-28T17:49:31.777Z,60.31
2022-07-28T17:52:00.144Z,60.68
2022-07-28T17:54:48.054Z,59.91
2022-07-28T17:57:18.052Z,60.20
2022-07-28T17:59:51.242Z,59.74
2022-07-28T18:02:20.283Z,59.85
2022-07-28T18:04:49.696Z,60.40
2022-07-28T18:07:18.174Z,61.17
2022-07-28T18:09:46.315Z,61.02
2022-07-28T18:12:14.107Z,60.24
2022-07-28T18:14:42.369Z,60.48
2022-07-28T18:17:10.065Z,59.91
2022-07-28T18:19:42.143Z,61.51
2022-07-28T18:22:13.288Z,60.90
2022-07-28T18:24:41.390Z,61.51
2022-07-28T18:27:10.493Z,60.62
2022-07-28T18:29:38.966Z,60.80
2022-07-28T18:32:09.665Z,61.18
2022-07-28T18:34:40.441Z,61.63
2022-07-28T18:37:08.670Z,62.22
2022-07-28T18:39:36.535Z,61.96
2022-07-28T18:42:05.102Z,62.18
2022-07-28T18:44:33.568Z,62.15
2022-07-28T18:47:02.062Z,62.18
2022-07-28T18:49:37.127Z,63.43
2022-07-28T18:52:06.857Z,62.66
2022-07-28T18:54:35.303Z,63.38
2022-07-28T18:57:04.930Z,63.13
2022-07-28T18:59:33.459Z,63.25
2022-07-28T19:02:01.719Z,63.39
2022-07-28T19:04:30.212Z,63.46
2022-07-28T19:06:58.472Z,64.22
2022-07-28T19:09:26.247Z,64.13
2022-07-28T19:11:55.964Z,63.94
2022-07-28T19:14:24.105Z,64.28
2022-07-28T19:16:52.250Z,64.02
2022-07-28T19:19:20.788Z,64.24
2022-07-28T19:21:48.996Z,64.62
2022-07-28T19:24:17.905Z,64.80
2022-07-28T19:26:50.278Z,65.81
2022-07-28T19:29:18.538Z,66.32
2022-07-28T19:31:46.724Z,67.72
2022-07-28T19:34:15.075Z,67.48
2022-07-28T19:36:43.454Z,68.07
2022-07-28T19:39:12.300Z,68.52
2022-07-28T19:41:40.837Z,68.21
2022-07-28T19:44:09.536Z,68.78
2022-07-28T19:46:39.406Z,68.67
2022-07-28T19:49:08.945Z,68.62
2022-07-28T19:51:37.405Z,68.63
2022-07-28T19:54:06.299Z,69.19
2022-07-28T19:56:34.688Z,69.07
2022-07-28T19:59:03.300Z,69.65
2022-07-28T20:01:31.529Z,69.48
2022-07-28T20:04:04.975Z,70.76
2022-07-28T20:06:33.873Z,70.24
2022-07-28T20:09:02.939Z,70.10
2022-07-28T20:11:33.016Z,70.61
2022-07-28T20:14:01.850Z,70.85
2022-07-28T20:16:30.262Z,71.23
2022-07-28T20:18:58.488Z,71.08
2022-07-28T20:21:26.795Z,71.30
2022-07-28T20:23:56.289Z,71.75
2022-07-28T20:26:26.400Z,70.77
2022-07-28T20:28:58.466Z,71.17
2022-07-28T20:31:27.141Z,70.88
2022-07-28T20:33:56.523Z,70.62
2022-07-28T20:36:29.500Z,70.82
2022-07-28T20:38:58.183Z,70.93
2022-07-28T20:41:26.390Z,71.10
2022-07-28T20:44:26.373Z,71.46
2022-07-28T20:46:43.015Z,71.56
2022-07-28T20:49:11.179Z,71.61
2022-07-28T20:51:39.411Z,71.21
2022-07-28T20:54:13.647Z,71.25
2022-07-28T20:56:42.929Z,70.82
2022-07-28T20:59:11.162Z,70.11
2022-07-28T21:01:39.803Z,70.81
2022-07-28T21:04:11.201Z,71.12
2022-07-28T21:06:39.934Z,71.06
2022-07-28T21:09:20.454Z,71.56
2022-07-28T21:11:48.771Z,71.54
2022-07-28T21:14:17.513Z,71.46
2022-07-28T21:16:45.978Z,72.35
2022-07-28T21:19:14.129Z,71.93
2022-07-28T21:21:42.323Z,72.22
2022-07-28T21:24:10.496Z,72.65
2022-07-28T21:26:40.717Z,73.06
2022-07-28T21:29:12.637Z,72.99
2022-07-28T21:32:04.811Z,72.77
2022-07-28T21:34:37.059Z,72.91
2022-07-28T21:37:06.869Z,73.16
2022-07-28T21:39:35.884Z,72.61
2022-07-28T21:42:07.727Z,72.63
2022-07-28T21:44:37.076Z,73.15
2022-07-28T21:47:05.601Z,73.26
2022-07-28T21:49:33.985Z,72.90
2022-07-28T21:52:02.211Z,73.04
2022-07-28T21:54:30.418Z,73.39
2022-07-28T21:56:58.824Z,72.96
2022-07-28T21:59:27.069Z,72.80
2022-07-28T22:01:55.390Z,73.48
2022-07-28T22:04:23.791Z,72.91
2022-07-28T22:06:54.743Z,72.90
2022-07-28T22:09:23.233Z,73.13
2022-07-28T22:11:51.803Z,73.43
2022-07-28T22:14:20.065Z,73.27
2022-07-28T22:16:48.366Z,73.03
2022-07-28T22:19:16.760Z,73.17
2022-07-28T22:21:44.937Z,73.03
2022-07-28T22:24:16.720Z,72.52
2022-07-28T22:26:45.238Z,73.51
2022-07-28T22:29:13.571Z,73.46
2022-07-28T22:31:41.761Z,73.60
2022-07-28T22:34:10.082Z,72.94
2022-07-28T22:36:38.911Z,72.68
2022-07-28T22:39:07.560Z,72.52
2022-07-28T22:41:35.965Z,73.94
2022-07-28T22:44:04.491Z,74.55
2022-07-28T22:46:34.342Z,75.41
2022-07-28T22:49:02.767Z,74.91
2022-07-28T22:51:31.095Z,74.05
2022-07-28T22:54:00.517Z,75.21
2022-07-28T22:56:28.664Z,74.05
2022-07-28T22:59:05.764Z,73.00
2022-07-28T23:01:37.563Z,73.38
2022-07-28T23:04:06.169Z,73.51
2022-07-28T23:06:35.959Z,75.13
2022-07-28T23:09:04.552Z,74.93
2022-07-28T23:11:32.700Z,76.20
2022-07-28T23:14:00.879Z,77.40
2022-07-28T23:16:29.210Z,77.50
2022-07-28T23:18:57.400Z,77.73
2022-07-28T23:21:25.644Z,78.34
2022-07-28T23:23:53.934Z,77.89
2022-07-28T23:26:22.338Z,78.52
2022-07-28T23:28:50.432Z,79.69
2022-07-28T23:31:18.704Z,77.71
2022-07-28T23:33:56.094Z,78.42
2022-07-28T23:36:27.792Z,76.92
2022-07-28T23:38:58.286Z,76.17
2022-07-28T23:41:27.290Z,77.09
2022-07-28T23:43:55.624Z,76.43
2022-07-28T23:46:23.874Z,75.32
2022-07-28T23:48:52.338Z,76.28
2022-07-28T23:51:21.895Z,75.76
2022-07-28T23:53:55.894Z,75.60
2022-07-28T23:56:44.943Z,75.17
2022-07-28T23:59:33.409Z,75.51
